sensor_id;sensor_type;location;lat;lon;timestamp;temperature;humidity
3308;DHT22;1666;48.898;9.182;2024-01-25T00:01:06;9.40;1.00
3308;DHT22;1666;48.898;9.182;2024-01-25T00:03:36;9.40;1.00
3308;DHT22;1666;48.898;9.182;2024-01-25T00:06:09;9.50;1.00
3308;DHT22;1666;48.898;9.182;2024-01-25T00:08:39;9.50;1.00
3308;DHT22;1666;48.898;9.182;2024-01-25T00:11:09;9.60;1.00
3308;DHT22;1666;48.898;9.182;2024-01-25T00:13:39;9.50;1.00
3308;DHT22;1666;48.898;9.182;2024-01-25T00:16:09;9.50;1.00
3308;DHT22;1666;48.898;9.182;2024-01-25T00:18:39;9.40;1.00
3308;DHT22;1666;48.898;9.182;2024-01-25T00:21:12;9.50;1.00
3308;DHT22;1666;48.898;9.182;2024-01-25T00:23:42;9.40;1.00
3308;DHT22;1666;48.898;9.182;2024-01-25T00:26:13;9.40;1.00
3308;DHT22;1666;48.898;9.182;2024-01-25T00:28:43;9.30;1.00
3308;DHT22;1666;48.898;9.182;2024-01-25T00:31:13;9.50;1.00
3308;DHT22;1666;48.898;9.182;2024-01-25T00:33:43;9.40;1.00
3308;DHT22;1666;48.898;9.182;2024-01-25T00:36:17;9.50;1.00
3308;DHT22;1666;48.898;9.182;2024-01-25T00:38:48;9.50;1.00
3308;DHT22;1666;48.898;9.182;2024-01-25T00:41:19;9.40;1.00
3308;DHT22;1666;48.898;9.182;2024-01-25T00:43:50;9.40;1.00
3308;DHT22;1666;48.898;9.182;2024-01-25T00:46:20;9.40;1.00
3308;DHT22;1666;48.898;9.182;2024-01-25T00:48:51;9.50;1.00
3308;DHT22;1666;48.898;9.182;2024-01-25T00:51:25;9.50;1.00
3308;DHT22;1666;48.898;9.182;2024-01-25T00:53:55;9.60;1.00
3308;DHT22;1666;48.898;9.182;2024-01-25T00:56:26;9.60;1.00
3308;DHT22;1666;48.898;9.182;2024-01-25T00:58:56;9.60;1.00
3308;DHT22;1666;48.898;9.182;2024-01-25T01:01:27;9.70;1.00
3308;DHT22;1666;48.898;9.182;2024-01-25T01:03:58;9.60;1.00
3308;DHT22;1666;48.898;9.182;2024-01-25T01:06:32;9.70;1.00
3308;DHT22;1666;48.898;9.182;2024-01-25T01:09:02;9.60;1.00
3308;DHT22;1666;48.898;9.182;2024-01-25T01:11:32;9.60;1.00
3308;DHT22;1666;48.898;9.182;2024-01-25T01:14:02;9.60;1.00
3308;DHT22;1666;48.898;9.182;2024-01-25T01:16:32;9.70;1.00
3308;DHT22;1666;48.898;9.182;2024-01-25T01:19:03;9.60;1.00
3308;DHT22;1666;48.898;9.182;2024-01-25T01:21:37;9.70;1.00
3308;DHT22;1666;48.898;9.182;2024-01-25T01:24:12;9.70;1.00
3308;DHT22;1666;48.898;9.182;2024-01-25T01:26:44;9.70;1.00
3308;DHT22;1666;48.898;9.182;2024-01-25T01:29:16;9.60;1.00
3308;DHT22;1666;48.898;9.182;2024-01-25T01:31:46;9.60;1.00
3308;DHT22;1666;48.898;9.182;2024-01-25T01:34:16;9.60;1.00
3308;DHT22;1666;48.898;9.182;2024-01-25T01:36:49;9.70;1.00
3308;DHT22;1666;48.898;9.182;2024-01-25T01:39:19;9.60;1.00
3308;DHT22;1666;48.898;9.182;2024-01-25T01:41:49;9.70;1.00
3308;DHT22;1666;48.898;9.182;2024-01-25T01:44:19;9.60;1.00
3308;DHT22;1666;48.898;9.182;2024-01-25T01:46:50;9.70;1.00
3308;DHT22;1666;48.898;9.182;2024-01-25T01:49:22;9.60;1.00
3308;DHT22;1666;48.898;9.182;2024-01-25T01:51:55;9.60;1.00
3308;DHT22;1666;48.898;9.182;2024-01-25T01:54:25;9.60;1.00
3308;DHT22;1666;48.898;9.182;2024-01-25T01:56:56;9.50;1.00
3308;DHT22;1666;48.898;9.182;2024-01-25T01:59:26;9.60;1.00
3308;DHT22;1666;48.898;9.182;2024-01-25T02:01:56;9.60;1.00
3308;DHT22;1666;48.898;9.182;2024-01-25T02:04:27;9.50;1.00
3308;DHT22;1666;48.898;9.182;2024-01-25T02:06:59;9.60;1.00
3308;DHT22;1666;48.898;9.182;2024-01-25T02:09:30;9.50;1.00
3308;DHT22;1666;48.898;9.182;2024-01-25T02:12:00;9.60;1.00
3308;DHT22;1666;48.898;9.182;2024-01-25T02:14:31;9.60;1.00
3308;DHT22;1666;48.898;9.182;2024-01-25T02:17:01;9.50;1.00
3308;DHT22;1666;48.898;9.182;2024-01-25T02:19:31;9.40;1.00
3308;DHT22;1666;48.898;9.182;2024-01-25T02:22:04;9.40;1.00
3308;DHT22;1666;48.898;9.182;2024-01-25T02:24:37;9.40;1.00
3308;DHT22;1666;48.898;9.182;2024-01-25T02:27:07;9.50;1.00
3308;DHT22;1666;48.898;9.182;2024-01-25T02:29:38;9.50;1.00
3308;DHT22;1666;48.898;9.182;2024-01-25T02:32:08;9.40;1.00
3308;DHT22;1666;48.898;9.182;2024-01-25T02:34:38;9.50;1.00
3308;DHT22;1666;48.898;9.182;2024-01-25T02:37:08;9.40;1.00
3308;DHT22;1666;48.898;9.182;2024-01-25T02:39:42;9.40;1.00
3308;DHT22;1666;48.898;9.182;2024-01-25T02:42:12;9.40;1.00
3308;DHT22;1666;48.898;9.182;2024-01-25T02:44:43;9.40;1.00
3308;DHT22;1666;48.898;9.182;2024-01-25T02:47:14;9.30;1.00
3308;DHT22;1666;48.898;9.182;2024-01-25T02:49:44;9.40;1.00
3308;DHT22;1666;48.898;9.182;2024-01-25T02:52:14;9.40;1.00
3308;DHT22;1666;48.898;9.182;2024-01-25T02:54:47;9.40;1.00
3308;DHT22;1666;48.898;9.182;2024-01-25T02:57:18;9.50;1.00
3308;DHT22;1666;48.898;9.182;2024-01-25T02:59:48;9.40;1.00
3308;DHT22;1666;48.898;9.182;2024-01-25T03:02:18;9.40;1.00
3308;DHT22;1666;48.898;9.182;2024-01-25T03:04:48;9.40;1.00
3308;DHT22;1666;48.898;9.182;2024-01-25T03:07:18;9.30;1.00
3308;DHT22;1666;48.898;9.182;2024-01-25T03:09:51;9.30;1.00
3308;DHT22;1666;48.898;9.182;2024-01-25T03:12:21;9.30;1.00
3308;DHT22;1666;48.898;9.182;2024-01-25T03:14:51;9.30;1.00
3308;DHT22;1666;48.898;9.182;2024-01-25T03:17:21;9.30;1.00
3308;DHT22;1666;48.898;9.182;2024-01-25T03:19:51;9.40;1.00
3308;DHT22;1666;48.898;9.182;2024-01-25T03:22:21;9.30;1.00
3308;DHT22;1666;48.898;9.182;2024-01-25T03:24:54;9.20;1.00
3308;DHT22;1666;48.898;9.182;2024-01-25T03:27:25;9.20;1.00
3308;DHT22;1666;48.898;9.182;2024-01-25T03:29:55;9.20;1.00
3308;DHT22;1666;48.898;9.182;2024-01-25T03:32:25;9.20;1.00
3308;DHT22;1666;48.898;9.182;2024-01-25T03:34:58;9.20;1.00
3308;DHT22;1666;48.898;9.182;2024-01-25T03:37:28;9.20;1.00
3308;DHT22;1666;48.898;9.182;2024-01-25T03:40:05;9.20;1.00
3308;DHT22;1666;48.898;9.182;2024-01-25T03:42:36;9.20;1.00
3308;DHT22;1666;48.898;9.182;2024-01-25T03:45:07;9.20;1.00
3308;DHT22;1666;48.898;9.182;2024-01-25T03:47:37;9.20;1.00
3308;DHT22;1666;48.898;9.182;2024-01-25T03:50:08;9.20;1.00
3308;DHT22;1666;48.898;9.182;2024-01-25T03:52:39;9.20;1.00
3308;DHT22;1666;48.898;9.182;2024-01-25T03:55:11;9.10;1.00
3308;DHT22;1666;48.898;9.182;2024-01-25T03:57:41;9.10;1.00
3308;DHT22;1666;48.898;9.182;2024-01-25T04:00:12;9.00;1.00
3308;DHT22;1666;48.898;9.182;2024-01-25T04:02:42;9.00;1.00
3308;DHT22;1666;48.898;9.182;2024-01-25T04:05:13;9.10;1.00
3308;DHT22;1666;48.898;9.182;2024-01-25T04:07:43;9.00;1.00
3308;DHT22;1666;48.898;9.182;2024-01-25T04:10:16;9.10;1.00
3308;DHT22;1666;48.898;9.182;2024-01-25T04:12:46;9.10;1.00
3308;DHT22;1666;48.898;9.182;2024-01-25T04:15:17;9.00;1.00
3308;DHT22;1666;48.898;9.182;2024-01-25T04:17:47;9.00;1.00
3308;DHT22;1666;48.898;9.182;2024-01-25T04:20:17;9.00;1.00
3308;DHT22;1666;48.898;9.182;2024-01-25T04:22:48;9.00;1.00
3308;DHT22;1666;48.898;9.182;2024-01-25T04:25:21;9.00;1.00
3308;DHT22;1666;48.898;9.182;2024-01-25T04:27:51;9.00;1.00
3308;DHT22;1666;48.898;9.182;2024-01-25T04:30:21;8.90;1.00
3308;DHT22;1666;48.898;9.182;2024-01-25T04:32:51;9.00;1.00
3308;DHT22;1666;48.898;9.182;2024-01-25T04:35:21;9.00;1.00
3308;DHT22;1666;48.898;9.182;2024-01-25T04:37:51;9.00;1.00
3308;DHT22;1666;48.898;9.182;2024-01-25T04:40:24;8.90;1.00
3308;DHT22;1666;48.898;9.182;2024-01-25T04:42:54;8.90;1.00
3308;DHT22;1666;48.898;9.182;2024-01-25T04:45:24;8.90;1.00
3308;DHT22;1666;48.898;9.182;2024-01-25T04:47:54;8.80;1.00
3308;DHT22;1666;48.898;9.182;2024-01-25T04:50:24;8.90;1.00
3308;DHT22;1666;48.898;9.182;2024-01-25T04:52:55;8.90;1.00
3308;DHT22;1666;48.898;9.182;2024-01-25T04:55:29;8.80;1.00
3308;DHT22;1666;48.898;9.182;2024-01-25T04:57:59;8.70;1.00
3308;DHT22;1666;48.898;9.182;2024-01-25T05:00:29;8.70;1.00
3308;DHT22;1666;48.898;9.182;2024-01-25T05:02:59;8.70;1.00
3308;DHT22;1666;48.898;9.182;2024-01-25T05:05:29;8.60;1.00
3308;DHT22;1666;48.898;9.182;2024-01-25T05:07:59;8.60;1.00
3308;DHT22;1666;48.898;9.182;2024-01-25T05:10:32;8.50;1.00
3308;DHT22;1666;48.898;9.182;2024-01-25T05:13:02;8.30;1.00
3308;DHT22;1666;48.898;9.182;2024-01-25T05:15:32;8.40;1.00
3308;DHT22;1666;48.898;9.182;2024-01-25T05:18:02;8.30;1.00
3308;DHT22;1666;48.898;9.182;2024-01-25T05:20:33;8.30;1.00
3308;DHT22;1666;48.898;9.182;2024-01-25T05:23:05;8.20;1.00
3308;DHT22;1666;48.898;9.182;2024-01-25T05:25:37;8.20;1.00
3308;DHT22;1666;48.898;9.182;2024-01-25T05:28:07;8.10;1.00
3308;DHT22;1666;48.898;9.182;2024-01-25T05:30:38;8.10;1.00
3308;DHT22;1666;48.898;9.182;2024-01-25T05:33:08;8.10;1.00
3308;DHT22;1666;48.898;9.182;2024-01-25T05:35:38;8.00;1.00
3308;DHT22;1666;48.898;9.182;2024-01-25T05:38:08;7.90;1.00
3308;DHT22;1666;48.898;9.182;2024-01-25T05:40:41;7.90;1.00
3308;DHT22;1666;48.898;9.182;2024-01-25T05:43:11;7.90;1.00
3308;DHT22;1666;48.898;9.182;2024-01-25T05:45:41;7.90;1.00
3308;DHT22;1666;48.898;9.182;2024-01-25T05:48:11;7.80;1.00
3308;DHT22;1666;48.898;9.182;2024-01-25T05:50:41;7.70;1.00
3308;DHT22;1666;48.898;9.182;2024-01-25T05:53:12;7.70;1.00
3308;DHT22;1666;48.898;9.182;2024-01-25T05:55:46;7.70;1.00
3308;DHT22;1666;48.898;9.182;2024-01-25T05:58:16;7.70;1.00
3308;DHT22;1666;48.898;9.182;2024-01-25T06:00:46;7.60;1.00
3308;DHT22;1666;48.898;9.182;2024-01-25T06:03:16;7.50;1.00
3308;DHT22;1666;48.898;9.182;2024-01-25T06:05:47;7.50;1.00
3308;DHT22;1666;48.898;9.182;2024-01-25T06:08:17;7.50;1.00
3308;DHT22;1666;48.898;9.182;2024-01-25T06:10:50;7.40;1.00
3308;DHT22;1666;48.898;9.182;2024-01-25T06:13:20;7.30;1.00
3308;DHT22;1666;48.898;9.182;2024-01-25T06:15:50;7.30;1.00
3308;DHT22;1666;48.898;9.182;2024-01-25T06:18:20;7.20;1.00
3308;DHT22;1666;48.898;9.182;2024-01-25T06:20:50;7.20;1.00
3308;DHT22;1666;48.898;9.182;2024-01-25T06:23:20;7.10;1.00
3308;DHT22;1666;48.898;9.182;2024-01-25T06:25:53;7.10;1.00
3308;DHT22;1666;48.898;9.182;2024-01-25T06:28:23;7.00;1.00
3308;DHT22;1666;48.898;9.182;2024-01-25T06:30:53;7.00;1.00
3308;DHT22;1666;48.898;9.182;2024-01-25T06:33:24;6.90;1.00
3308;DHT22;1666;48.898;9.182;2024-01-25T06:35:54;6.90;1.00
3308;DHT22;1666;48.898;9.182;2024-01-25T06:38:24;6.80;1.00
3308;DHT22;1666;48.898;9.182;2024-01-25T06:40:57;6.80;1.00
3308;DHT22;1666;48.898;9.182;2024-01-25T06:43:27;6.90;1.00
3308;DHT22;1666;48.898;9.182;2024-01-25T06:45:57;6.80;1.00
3308;DHT22;1666;48.898;9.182;2024-01-25T06:48:27;6.80;1.00
3308;DHT22;1666;48.898;9.182;2024-01-25T06:50:57;6.70;1.00
3308;DHT22;1666;48.898;9.182;2024-01-25T06:53:28;6.70;1.00
3308;DHT22;1666;48.898;9.182;2024-01-25T06:56:00;6.60;1.00
3308;DHT22;1666;48.898;9.182;2024-01-25T06:58:31;6.50;1.00
3308;DHT22;1666;48.898;9.182;2024-01-25T07:01:01;6.60;1.00
3308;DHT22;1666;48.898;9.182;2024-01-25T07:03:32;6.50;1.00
3308;DHT22;1666;48.898;9.182;2024-01-25T07:06:03;6.50;1.00
3308;DHT22;1666;48.898;9.182;2024-01-25T07:08:34;6.50;1.00
3308;DHT22;1666;48.898;9.182;2024-01-25T07:11:06;6.40;1.00
3308;DHT22;1666;48.898;9.182;2024-01-25T07:13:36;6.40;1.00
3308;DHT22;1666;48.898;9.182;2024-01-25T07:16:06;6.30;1.00
3308;DHT22;1666;48.898;9.182;2024-01-25T07:18:37;6.30;1.00
3308;DHT22;1666;48.898;9.182;2024-01-25T07:21:07;6.40;1.00
3308;DHT22;1666;48.898;9.182;2024-01-25T07:23:37;6.60;1.00
3308;DHT22;1666;48.898;9.182;2024-01-25T07:26:09;6.70;1.00
3308;DHT22;1666;48.898;9.182;2024-01-25T07:28:45;6.70;1.00
3308;DHT22;1666;48.898;9.182;2024-01-25T07:31:16;6.70;1.00
3308;DHT22;1666;48.898;9.182;2024-01-25T07:33:47;6.80;1.00
3308;DHT22;1666;48.898;9.182;2024-01-25T07:36:17;6.80;1.00
3308;DHT22;1666;48.898;9.182;2024-01-25T07:38:49;6.80;1.00
3308;DHT22;1666;48.898;9.182;2024-01-25T07:41:22;6.80;1.00
3308;DHT22;1666;48.898;9.182;2024-01-25T07:43:52;6.80;1.00
3308;DHT22;1666;48.898;9.182;2024-01-25T07:46:22;6.90;1.00
3308;DHT22;1666;48.898;9.182;2024-01-25T07:48:53;7.00;1.00
3308;DHT22;1666;48.898;9.182;2024-01-25T07:51:24;7.00;1.00
3308;DHT22;1666;48.898;9.182;2024-01-25T07:53:56;7.00;1.00
3308;DHT22;1666;48.898;9.182;2024-01-25T07:56:28;7.10;1.00
3308;DHT22;1666;48.898;9.182;2024-01-25T07:58:59;7.10;1.00
3308;DHT22;1666;48.898;9.182;2024-01-25T08:01:29;7.10;1.00
3308;DHT22;1666;48.898;9.182;2024-01-25T08:04:00;7.20;1.00
3308;DHT22;1666;48.898;9.182;2024-01-25T08:06:30;7.20;1.00
3308;DHT22;1666;48.898;9.182;2024-01-25T08:09:01;7.30;1.00
3308;DHT22;1666;48.898;9.182;2024-01-25T08:11:34;7.30;1.00
3308;DHT22;1666;48.898;9.182;2024-01-25T08:14:04;7.30;1.00
3308;DHT22;1666;48.898;9.182;2024-01-25T08:16:34;7.40;1.00
3308;DHT22;1666;48.898;9.182;2024-01-25T08:19:04;7.40;1.00
3308;DHT22;1666;48.898;9.182;2024-01-25T08:21:35;7.40;1.00
3308;DHT22;1666;48.898;9.182;2024-01-25T08:24:05;7.50;1.00
3308;DHT22;1666;48.898;9.182;2024-01-25T08:26:38;7.50;1.00
3308;DHT22;1666;48.898;9.182;2024-01-25T08:29:08;7.60;1.00
3308;DHT22;1666;48.898;9.182;2024-01-25T08:31:38;7.70;1.00
3308;DHT22;1666;48.898;9.182;2024-01-25T08:34:08;7.80;1.00
3308;DHT22;1666;48.898;9.182;2024-01-25T08:36:38;7.80;1.00
3308;DHT22;1666;48.898;9.182;2024-01-25T08:39:08;7.90;1.00
3308;DHT22;1666;48.898;9.182;2024-01-25T08:41:41;7.90;1.00
3308;DHT22;1666;48.898;9.182;2024-01-25T08:44:12;7.90;1.00
3308;DHT22;1666;48.898;9.182;2024-01-25T08:46:43;8.00;1.00
3308;DHT22;1666;48.898;9.182;2024-01-25T08:49:13;8.00;1.00
3308;DHT22;1666;48.898;9.182;2024-01-25T08:51:44;8.10;1.00
3308;DHT22;1666;48.898;9.182;2024-01-25T08:54:14;8.10;1.00
3308;DHT22;1666;48.898;9.182;2024-01-25T08:56:46;8.20;1.00
3308;DHT22;1666;48.898;9.182;2024-01-25T08:59:17;8.20;1.00
3308;DHT22;1666;48.898;9.182;2024-01-25T09:01:47;8.30;1.00
3308;DHT22;1666;48.898;9.182;2024-01-25T09:04:17;8.40;1.00
3308;DHT22;1666;48.898;9.182;2024-01-25T09:06:51;8.50;1.00
3308;DHT22;1666;48.898;9.182;2024-01-25T09:09:22;8.50;1.00
3308;DHT22;1666;48.898;9.182;2024-01-25T09:11:54;8.60;1.00
3308;DHT22;1666;48.898;9.182;2024-01-25T09:14:24;8.70;1.00
3308;DHT22;1666;48.898;9.182;2024-01-25T09:16:55;8.70;1.00
3308;DHT22;1666;48.898;9.182;2024-01-25T09:19:25;8.80;1.00
3308;DHT22;1666;48.898;9.182;2024-01-25T09:21:55;8.90;1.00
3308;DHT22;1666;48.898;9.182;2024-01-25T09:24:29;8.90;1.00
3308;DHT22;1666;48.898;9.182;2024-01-25T09:27:03;8.80;1.00
3308;DHT22;1666;48.898;9.182;2024-01-25T09:29:35;8.80;1.00
3308;DHT22;1666;48.898;9.182;2024-01-25T09:32:08;9.00;1.00
3308;DHT22;1666;48.898;9.182;2024-01-25T09:34:38;9.00;1.00
3308;DHT22;1666;48.898;9.182;2024-01-25T09:37:09;9.10;1.00
3308;DHT22;1666;48.898;9.182;2024-01-25T09:39:39;9.20;1.00
3308;DHT22;1666;48.898;9.182;2024-01-25T09:42:12;9.10;1.00
3308;DHT22;1666;48.898;9.182;2024-01-25T09:44:43;9.00;1.00
3308;DHT22;1666;48.898;9.182;2024-01-25T09:47:13;9.10;1.00
3308;DHT22;1666;48.898;9.182;2024-01-25T09:49:47;9.10;1.00
3308;DHT22;1666;48.898;9.182;2024-01-25T09:52:19;9.10;1.00
3308;DHT22;1666;48.898;9.182;2024-01-25T09:54:53;9.30;1.00
3308;DHT22;1666;48.898;9.182;2024-01-25T09:57:28;9.20;1.00
3308;DHT22;1666;48.898;9.182;2024-01-25T10:00:00;9.20;1.00
3308;DHT22;1666;48.898;9.182;2024-01-25T10:02:30;9.30;1.00
3308;DHT22;1666;48.898;9.182;2024-01-25T10:05:01;9.30;1.00
3308;DHT22;1666;48.898;9.182;2024-01-25T10:07:38;9.50;1.00
3308;DHT22;1666;48.898;9.182;2024-01-25T10:10:09;9.40;1.00
3308;DHT22;1666;48.898;9.182;2024-01-25T10:12:43;9.50;1.00
3308;DHT22;1666;48.898;9.182;2024-01-25T10:15:13;9.50;1.00
3308;DHT22;1666;48.898;9.182;2024-01-25T10:17:44;9.50;1.00
3308;DHT22;1666;48.898;9.182;2024-01-25T10:20:34;9.40;1.00
3308;DHT22;1666;48.898;9.182;2024-01-25T10:23:05;9.50;1.00
3308;DHT22;1666;48.898;9.182;2024-01-25T10:25:35;9.70;1.00
3308;DHT22;1666;48.898;9.182;2024-01-25T10:28:09;9.80;1.00
3308;DHT22;1666;48.898;9.182;2024-01-25T10:30:40;9.70;1.00
3308;DHT22;1666;48.898;9.182;2024-01-25T10:33:11;9.60;1.00
3308;DHT22;1666;48.898;9.182;2024-01-25T10:35:42;9.70;1.00
3308;DHT22;1666;48.898;9.182;2024-01-25T10:38:17;9.70;1.00
3308;DHT22;1666;48.898;9.182;2024-01-25T10:40:47;9.70;1.00
3308;DHT22;1666;48.898;9.182;2024-01-25T10:43:20;9.70;1.00
3308;DHT22;1666;48.898;9.182;2024-01-25T10:45:51;9.70;1.00
3308;DHT22;1666;48.898;9.182;2024-01-25T10:48:27;9.70;1.00
3308;DHT22;1666;48.898;9.182;2024-01-25T10:50:57;9.50;1.00
3308;DHT22;1666;48.898;9.182;2024-01-25T10:53:32;9.40;1.00
3308;DHT22;1666;48.898;9.182;2024-01-25T10:56:03;9.40;1.00
3308;DHT22;1666;48.898;9.182;2024-01-25T10:58:40;9.60;1.00
3308;DHT22;1666;48.898;9.182;2024-01-25T11:01:11;9.60;1.00
3308;DHT22;1666;48.898;9.182;2024-01-25T11:03:45;9.80;1.00
3308;DHT22;1666;48.898;9.182;2024-01-25T11:06:16;9.80;1.00
3308;DHT22;1666;48.898;9.182;2024-01-25T11:08:50;9.90;1.00
3308;DHT22;1666;48.898;9.182;2024-01-25T11:11:20;10.00;1.00
3308;DHT22;1666;48.898;9.182;2024-01-25T11:13:55;10.00;1.00
3308;DHT22;1666;48.898;9.182;2024-01-25T11:16:29;10.20;1.00
3308;DHT22;1666;48.898;9.182;2024-01-25T11:19:01;10.30;1.00
3308;DHT22;1666;48.898;9.182;2024-01-25T11:21:42;10.30;1.00
3308;DHT22;1666;48.898;9.182;2024-01-25T11:24:13;10.50;1.00
3308;DHT22;1666;48.898;9.182;2024-01-25T11:26:44;10.60;1.00
3308;DHT22;1666;48.898;9.182;2024-01-25T11:29:18;10.60;1.00
3308;DHT22;1666;48.898;9.182;2024-01-25T11:31:50;11.10;1.00
3308;DHT22;1666;48.898;9.182;2024-01-25T11:34:22;11.40;1.00
3308;DHT22;1666;48.898;9.182;2024-01-25T11:36:52;11.20;1.00
3308;DHT22;1666;48.898;9.182;2024-01-25T11:39:24;11.30;1.00
3308;DHT22;1666;48.898;9.182;2024-01-25T11:41:54;11.40;1.00
3308;DHT22;1666;48.898;9.182;2024-01-25T11:44:27;11.10;1.00
3308;DHT22;1666;48.898;9.182;2024-01-25T11:46:57;11.30;1.00
3308;DHT22;1666;48.898;9.182;2024-01-25T11:49:27;11.40;1.00
3308;DHT22;1666;48.898;9.182;2024-01-25T11:51:58;11.10;1.00
3308;DHT22;1666;48.898;9.182;2024-01-25T11:54:29;11.30;1.00
3308;DHT22;1666;48.898;9.182;2024-01-25T11:56:59;11.10;1.00
3308;DHT22;1666;48.898;9.182;2024-01-25T11:59:32;11.00;1.00
3308;DHT22;1666;48.898;9.182;2024-01-25T12:02:03;11.20;1.00
3308;DHT22;1666;48.898;9.182;2024-01-25T12:04:33;11.20;1.00
3308;DHT22;1666;48.898;9.182;2024-01-25T12:07:04;11.20;1.00
3308;DHT22;1666;48.898;9.182;2024-01-25T12:09:34;11.10;1.00
3308;DHT22;1666;48.898;9.182;2024-01-25T12:12:05;11.40;1.00
3308;DHT22;1666;48.898;9.182;2024-01-25T12:14:40;11.10;1.00
3308;DHT22;1666;48.898;9.182;2024-01-25T12:17:10;11.20;1.00
3308;DHT22;1666;48.898;9.182;2024-01-25T12:19:40;11.30;1.00
3308;DHT22;1666;48.898;9.182;2024-01-25T12:22:11;11.30;1.00
3308;DHT22;1666;48.898;9.182;2024-01-25T12:24:41;11.10;1.00
3308;DHT22;1666;48.898;9.182;2024-01-25T12:27:26;11.00;1.00
3308;DHT22;1666;48.898;9.182;2024-01-25T12:30:00;10.90;1.00
3308;DHT22;1666;48.898;9.182;2024-01-25T12:32:31;11.10;1.00
3308;DHT22;1666;48.898;9.182;2024-01-25T12:35:01;10.90;1.00
3308;DHT22;1666;48.898;9.182;2024-01-25T12:37:31;10.60;1.00
3308;DHT22;1666;48.898;9.182;2024-01-25T12:40:02;10.90;1.00
3308;DHT22;1666;48.898;9.182;2024-01-25T12:42:33;11.30;1.00
3308;DHT22;1666;48.898;9.182;2024-01-25T12:45:07;11.00;1.00
3308;DHT22;1666;48.898;9.182;2024-01-25T12:47:38;11.00;1.00
3308;DHT22;1666;48.898;9.182;2024-01-25T12:50:09;10.90;1.00
3308;DHT22;1666;48.898;9.182;2024-01-25T12:52:39;11.10;1.00
3308;DHT22;1666;48.898;9.182;2024-01-25T12:55:09;10.90;1.00
3308;DHT22;1666;48.898;9.182;2024-01-25T12:57:40;11.00;1.00
3308;DHT22;1666;48.898;9.182;2024-01-25T13:00:14;11.20;1.00
3308;DHT22;1666;48.898;9.182;2024-01-25T13:02:45;11.00;1.00
3308;DHT22;1666;48.898;9.182;2024-01-25T13:05:17;11.30;1.00
3308;DHT22;1666;48.898;9.182;2024-01-25T13:07:47;11.20;1.00
3308;DHT22;1666;48.898;9.182;2024-01-25T13:10:18;11.30;1.00
3308;DHT22;1666;48.898;9.182;2024-01-25T13:12:48;11.30;1.00
3308;DHT22;1666;48.898;9.182;2024-01-25T13:15:21;11.20;1.00
3308;DHT22;1666;48.898;9.182;2024-01-25T13:17:51;11.00;1.00
3308;DHT22;1666;48.898;9.182;2024-01-25T13:20:21;11.20;1.00
3308;DHT22;1666;48.898;9.182;2024-01-25T13:22:51;11.00;1.00
3308;DHT22;1666;48.898;9.182;2024-01-25T13:25:21;11.00;1.00
3308;DHT22;1666;48.898;9.182;2024-01-25T13:27:51;10.70;1.00
3308;DHT22;1666;48.898;9.182;2024-01-25T13:30:24;10.80;1.00
3308;DHT22;1666;48.898;9.182;2024-01-25T13:32:54;10.90;1.00
3308;DHT22;1666;48.898;9.182;2024-01-25T13:35:24;11.00;1.00
3308;DHT22;1666;48.898;9.182;2024-01-25T13:37:55;11.00;1.00
3308;DHT22;1666;48.898;9.182;2024-01-25T13:40:28;11.00;1.00
3308;DHT22;1666;48.898;9.182;2024-01-25T13:42:58;11.00;1.00
3308;DHT22;1666;48.898;9.182;2024-01-25T13:45:30;11.10;1.00
3308;DHT22;1666;48.898;9.182;2024-01-25T13:48:00;10.90;1.00
3308;DHT22;1666;48.898;9.182;2024-01-25T13:50:30;10.90;1.00
3308;DHT22;1666;48.898;9.182;2024-01-25T13:53:00;10.90;1.00
3308;DHT22;1666;48.898;9.182;2024-01-25T13:55:30;10.80;1.00
3308;DHT22;1666;48.898;9.182;2024-01-25T13:58:01;10.80;1.00
3308;DHT22;1666;48.898;9.182;2024-01-25T14:00:34;11.00;1.00
3308;DHT22;1666;48.898;9.182;2024-01-25T14:03:04;10.90;1.00
3308;DHT22;1666;48.898;9.182;2024-01-25T14:05:34;10.90;1.00
3308;DHT22;1666;48.898;9.182;2024-01-25T14:08:06;10.80;1.00
3308;DHT22;1666;48.898;9.182;2024-01-25T14:10:36;10.80;1.00
3308;DHT22;1666;48.898;9.182;2024-01-25T14:13:07;10.90;1.00
3308;DHT22;1666;48.898;9.182;2024-01-25T14:15:39;11.00;1.00
3308;DHT22;1666;48.898;9.182;2024-01-25T14:18:10;11.00;1.00
3308;DHT22;1666;48.898;9.182;2024-01-25T14:20:40;11.10;1.00
3308;DHT22;1666;48.898;9.182;2024-01-25T14:23:10;11.00;1.00
3308;DHT22;1666;48.898;9.182;2024-01-25T14:25:40;11.00;1.00
3308;DHT22;1666;48.898;9.182;2024-01-25T14:28:12;10.90;1.00
3308;DHT22;1666;48.898;9.182;2024-01-25T14:30:45;10.90;1.00
3308;DHT22;1666;48.898;9.182;2024-01-25T14:33:16;10.80;1.00
3308;DHT22;1666;48.898;9.182;2024-01-25T14:35:46;10.80;1.00
3308;DHT22;1666;48.898;9.182;2024-01-25T14:38:16;10.80;1.00
3308;DHT22;1666;48.898;9.182;2024-01-25T14:40:46;10.70;1.00
3308;DHT22;1666;48.898;9.182;2024-01-25T14:43:26;10.60;1.00
3308;DHT22;1666;48.898;9.182;2024-01-25T14:45:58;10.50;1.00
3308;DHT22;1666;48.898;9.182;2024-01-25T14:48:29;10.60;1.00
3308;DHT22;1666;48.898;9.182;2024-01-25T14:50:59;10.50;1.00
3308;DHT22;1666;48.898;9.182;2024-01-25T14:53:29;10.50;1.00
3308;DHT22;1666;48.898;9.182;2024-01-25T14:55:59;10.50;1.00
3308;DHT22;1666;48.898;9.182;2024-01-25T14:58:29;10.40;1.00
3308;DHT22;1666;48.898;9.182;2024-01-25T15:01:02;10.40;1.00
3308;DHT22;1666;48.898;9.182;2024-01-25T15:03:32;10.40;1.00
3308;DHT22;1666;48.898;9.182;2024-01-25T15:06:03;10.30;1.00
3308;DHT22;1666;48.898;9.182;2024-01-25T15:08:33;10.30;1.00
3308;DHT22;1666;48.898;9.182;2024-01-25T15:11:03;10.30;1.00
3308;DHT22;1666;48.898;9.182;2024-01-25T15:13:33;10.20;1.00
3308;DHT22;1666;48.898;9.182;2024-01-25T15:16:06;10.20;1.00
3308;DHT22;1666;48.898;9.182;2024-01-25T15:18:36;10.20;1.00
3308;DHT22;1666;48.898;9.182;2024-01-25T15:21:07;10.10;1.00
3308;DHT22;1666;48.898;9.182;2024-01-25T15:23:37;10.10;1.00
3308;DHT22;1666;48.898;9.182;2024-01-25T15:26:07;10.00;1.00
3308;DHT22;1666;48.898;9.182;2024-01-25T15:28:37;10.00;1.00
3308;DHT22;1666;48.898;9.182;2024-01-25T15:31:10;10.10;1.00
3308;DHT22;1666;48.898;9.182;2024-01-25T15:33:40;10.10;1.00
3308;DHT22;1666;48.898;9.182;2024-01-25T15:36:11;10.00;1.00
3308;DHT22;1666;48.898;9.182;2024-01-25T15:38:44;10.00;1.00
3308;DHT22;1666;48.898;9.182;2024-01-25T15:41:15;10.00;1.00
3308;DHT22;1666;48.898;9.182;2024-01-25T15:43:48;10.00;1.00
3308;DHT22;1666;48.898;9.182;2024-01-25T15:46:21;10.00;1.00
3308;DHT22;1666;48.898;9.182;2024-01-25T15:48:51;10.00;1.00
3308;DHT22;1666;48.898;9.182;2024-01-25T15:51:22;10.00;1.00
3308;DHT22;1666;48.898;9.182;2024-01-25T15:53:53;9.90;1.00
3308;DHT22;1666;48.898;9.182;2024-01-25T15:56:23;9.90;1.00
3308;DHT22;1666;48.898;9.182;2024-01-25T15:58:53;9.90;1.00
3308;DHT22;1666;48.898;9.182;2024-01-25T16:01:25;9.90;1.00
3308;DHT22;1666;48.898;9.182;2024-01-25T16:03:56;9.90;1.00
3308;DHT22;1666;48.898;9.182;2024-01-25T16:06:26;9.80;1.00
3308;DHT22;1666;48.898;9.182;2024-01-25T16:09:00;9.80;1.00
3308;DHT22;1666;48.898;9.182;2024-01-25T16:11:31;9.80;1.00
3308;DHT22;1666;48.898;9.182;2024-01-25T16:14:01;9.70;1.00
3308;DHT22;1666;48.898;9.182;2024-01-25T16:16:34;9.70;1.00
3308;DHT22;1666;48.898;9.182;2024-01-25T16:19:04;9.70;1.00
3308;DHT22;1666;48.898;9.182;2024-01-25T16:21:34;9.70;1.00
3308;DHT22;1666;48.898;9.182;2024-01-25T16:24:05;9.80;1.00
3308;DHT22;1666;48.898;9.182;2024-01-25T16:26:35;9.70;1.00
3308;DHT22;1666;48.898;9.182;2024-01-25T16:29:05;9.70;1.00
3308;DHT22;1666;48.898;9.182;2024-01-25T16:31:37;9.70;1.00
3308;DHT22;1666;48.898;9.182;2024-01-25T16:34:08;9.70;1.00
3308;DHT22;1666;48.898;9.182;2024-01-25T16:36:38;9.70;1.00
3308;DHT22;1666;48.898;9.182;2024-01-25T16:39:08;9.70;1.00
3308;DHT22;1666;48.898;9.182;2024-01-25T16:41:40;9.70;1.00
3308;DHT22;1666;48.898;9.182;2024-01-25T16:44:10;9.70;1.00
3308;DHT22;1666;48.898;9.182;2024-01-25T16:46:43;9.70;1.00
3308;DHT22;1666;48.898;9.182;2024-01-25T16:49:13;9.60;1.00
3308;DHT22;1666;48.898;9.182;2024-01-25T16:51:43;9.70;1.00
3308;DHT22;1666;48.898;9.182;2024-01-25T16:54:13;9.60;1.00